Time;durP1;ratioP1;P1;durP2;ratioP2;P2;SDS_P1;SDS_P2;PMS_P1;PMS_P2;Temp;Humidity;BMP_temperature;BMP_pressure;BME280_temperature;BME280_humidity;BME280_pressure;Samples;Min_cycle;Max_cycle;Signal;HPM_P1;HPM_P2
2020/12/22 00:01:21;;;;;;;1.00;0.80;;;;;;;;;;5073259;28;20455;-76
2020/12/22 00:03:48;;;;;;;0.90;0.70;;;;;;;;;;5071499;28;20549;-77
2020/12/22 00:06:22;;;;;;;1.03;0.80;;;;;;;;;;5072611;28;20446;-76
2020/12/22 00:08:49;;;;;;;0.90;0.70;;;;;;;;;;5067725;28;20448;-77
2020/12/22 00:11:15;;;;;;;1.53;0.80;;;;;;;;;;5067542;28;20478;-77
2020/12/22 00:13:42;;;;;;;1.00;0.80;;;;;;;;;;5071279;28;20710;-77
2020/12/22 00:16:09;;;;;;;0.90;0.80;;;;;;;;;;5070814;28;20466;-77
2020/12/22 00:18:36;;;;;;;0.90;0.80;;;;;;;;;;5070782;28;20443;-77
2020/12/22 00:21:03;;;;;;;1.67;1.00;;;;;;;;;;5072988;28;20447;-77
2020/12/22 00:23:30;;;;;;;0.80;0.70;;;;;;;;;;5073204;28;20452;-77
2020/12/22 00:25:57;;;;;;;1.00;0.90;;;;;;;;;;5073096;28;20449;-77
2020/12/22 00:28:24;;;;;;;1.10;0.70;;;;;;;;;;5072699;28;20458;-77
2020/12/22 00:30:51;;;;;;;0.80;0.70;;;;;;;;;;5067360;28;20480;-77
2020/12/22 00:33:18;;;;;;;1.03;0.80;;;;;;;;;;5067611;28;20463;-77
2020/12/22 00:35:45;;;;;;;0.93;0.70;;;;;;;;;;5071133;28;20437;-77
2020/12/22 00:38:12;;;;;;;1.00;0.70;;;;;;;;;;5071073;28;20523;-77
2020/12/22 00:40:39;;;;;;;1.47;1.00;;;;;;;;;;5070848;28;20497;-77
2020/12/22 00:43:06;;;;;;;1.00;0.73;;;;;;;;;;5072030;28;20534;-77
2020/12/22 00:45:33;;;;;;;1.00;0.90;;;;;;;;;;5072293;28;20440;-76
2020/12/22 00:48:00;;;;;;;0.80;0.77;;;;;;;;;;5072772;28;20854;-77
2020/12/22 00:50:27;;;;;;;0.90;0.73;;;;;;;;;;5072407;28;21022;-77
2020/12/22 00:52:54;;;;;;;0.93;0.80;;;;;;;;;;5066676;28;20941;-77
2020/12/22 00:55:20;;;;;;;1.97;0.70;;;;;;;;;;5068034;28;20436;-77
2020/12/22 00:57:48;;;;;;;1.57;0.70;;;;;;;;;;5070581;28;20443;-77
2020/12/22 01:00:37;;;;;;;0.90;0.80;;;;;;;;;;5070096;28;20879;-77
2020/12/22 01:03:05;;;;;;;1.00;0.70;;;;;;;;;;5069787;28;20460;-77
2020/12/22 01:05:32;;;;;;;1.50;0.90;;;;;;;;;;5071575;28;20445;-76
2020/12/22 01:07:58;;;;;;;0.90;0.80;;;;;;;;;;5072207;28;20447;-79
2020/12/22 01:10:25;;;;;;;1.10;0.83;;;;;;;;;;5071986;28;20499;-78
2020/12/22 01:12:53;;;;;;;1.27;0.80;;;;;;;;;;5071806;28;20468;-78
2020/12/22 01:15:21;;;;;;;1.40;0.80;;;;;;;;;;5066555;28;20447;-78
2020/12/22 01:17:47;;;;;;;1.00;0.80;;;;;;;;;;5067548;28;20527;-78
2020/12/22 01:20:14;;;;;;;1.00;0.73;;;;;;;;;;5070358;28;20443;-77
2020/12/22 01:22:41;;;;;;;1.23;0.80;;;;;;;;;;5070177;28;20532;-77
2020/12/22 01:25:08;;;;;;;1.10;0.87;;;;;;;;;;5069914;28;20479;-77
2020/12/22 01:27:35;;;;;;;1.20;0.90;;;;;;;;;;5070857;28;20474;-77
2020/12/22 01:30:03;;;;;;;1.00;0.70;;;;;;;;;;5072013;28;20494;-78
2020/12/22 01:32:29;;;;;;;1.23;0.90;;;;;;;;;;5071579;28;20536;-77
2020/12/22 01:34:56;;;;;;;0.97;0.80;;;;;;;;;;5051871;28;20818;-78
2020/12/22 01:37:23;;;;;;;0.90;0.70;;;;;;;;;;5064251;28;20819;-78
2020/12/22 01:39:50;;;;;;;0.80;0.70;;;;;;;;;;5066610;28;20459;-78
2020/12/22 01:42:17;;;;;;;2.40;0.90;;;;;;;;;;5070107;28;20867;-78
2020/12/22 01:44:44;;;;;;;2.07;0.80;;;;;;;;;;5069553;28;20543;-78
2020/12/22 01:47:11;;;;;;;1.53;1.10;;;;;;;;;;5069795;28;20468;-78
2020/12/22 01:49:38;;;;;;;3.30;2.20;;;;;;;;;;5070373;28;20484;-77
2020/12/22 01:52:05;;;;;;;1.10;0.90;;;;;;;;;;5071439;28;20446;-78
2020/12/22 01:54:32;;;;;;;1.20;1.00;;;;;;;;;;5071243;28;20551;-78
2020/12/22 01:56:59;;;;;;;3.07;1.27;;;;;;;;;;5071693;28;20447;-77
2020/12/22 01:59:26;;;;;;;1.03;0.80;;;;;;;;;;5066312;28;20459;-77
2020/12/22 02:01:54;;;;;;;1.43;1.00;;;;;;;;;;5066707;28;20539;-78
2020/12/22 02:04:22;;;;;;;0.90;0.80;;;;;;;;;;5067590;28;20460;-78
2020/12/22 02:06:49;;;;;;;1.13;0.90;;;;;;;;;;5069129;28;20473;-78
2020/12/22 02:09:16;;;;;;;1.20;0.90;;;;;;;;;;5069470;28;20444;-78
2020/12/22 02:11:43;;;;;;;1.10;0.93;;;;;;;;;;5069773;28;20474;-77
2020/12/22 02:14:12;;;;;;;0.90;0.80;;;;;;;;;;5071216;28;20456;-78
2020/12/22 02:16:40;;;;;;;1.93;0.90;;;;;;;;;;5071126;28;20451;-78
2020/12/22 02:19:07;;;;;;;0.97;0.83;;;;;;;;;;5069972;28;20447;-78
2020/12/22 02:21:34;;;;;;;0.90;0.80;;;;;;;;;;5066193;28;20436;-78
2020/12/22 02:24:01;;;;;;;1.93;1.07;;;;;;;;;;5065305;28;20466;-78
2020/12/22 02:26:28;;;;;;;0.90;0.77;;;;;;;;;;5068887;28;20443;-78
2020/12/22 02:28:55;;;;;;;2.03;1.10;;;;;;;;;;5069280;28;20580;-77
2020/12/22 02:31:23;;;;;;;1.20;1.10;;;;;;;;;;5068036;28;20583;-77
2020/12/22 02:33:50;;;;;;;2.60;1.00;;;;;;;;;;5069548;28;20633;-78
2020/12/22 02:36:16;;;;;;;2.17;1.10;;;;;;;;;;5070857;28;20447;-78
2020/12/22 02:38:44;;;;;;;2.27;1.10;;;;;;;;;;5071341;28;20855;-77
2020/12/22 02:41:11;;;;;;;5.07;1.00;;;;;;;;;;5069971;28;20497;-78
2020/12/22 02:43:38;;;;;;;1.47;0.90;;;;;;;;;;5067968;28;20906;-78
2020/12/22 02:46:06;;;;;;;1.30;1.10;;;;;;;;;;5065060;28;20467;-78
2020/12/22 02:48:33;;;;;;;1.50;1.00;;;;;;;;;;5067405;28;20464;-77
2020/12/22 02:51:00;;;;;;;1.30;1.20;;;;;;;;;;5069047;28;20480;-77
2020/12/22 02:53:27;;;;;;;1.40;0.70;;;;;;;;;;5068216;28;21045;-78
2020/12/22 02:55:54;;;;;;;1.20;1.10;;;;;;;;;;5068922;28;20956;-78
2020/12/22 02:58:21;;;;;;;0.80;0.80;;;;;;;;;;5070974;28;20454;-77
2020/12/22 03:00:48;;;;;;;1.00;0.90;;;;;;;;;;5070732;28;20440;-78
2020/12/22 03:03:15;;;;;;;1.13;0.90;;;;;;;;;;5070430;28;20456;-78
2020/12/22 03:05:42;;;;;;;1.30;0.80;;;;;;;;;;5068714;28;20436;-78
2020/12/22 03:08:09;;;;;;;2.40;0.90;;;;;;;;;;5065008;28;20511;-78
2020/12/22 03:10:36;;;;;;;1.50;0.80;;;;;;;;;;5067679;28;20977;-78
2020/12/22 03:13:04;;;;;;;0.90;0.70;;;;;;;;;;5068616;28;20824;-77
2020/12/22 03:15:31;;;;;;;2.07;0.90;;;;;;;;;;5070438;28;21043;-77
2020/12/22 03:17:58;;;;;;;1.47;0.70;;;;;;;;;;5072271;28;20452;-78
2020/12/22 03:20:24;;;;;;;0.80;0.70;;;;;;;;;;5074453;28;20436;-77
2020/12/22 03:22:52;;;;;;;1.10;0.80;;;;;;;;;;5064846;28;20447;-77
2020/12/22 03:25:19;;;;;;;1.37;0.90;;;;;;;;;;5054326;28;20539;-77
2020/12/22 03:27:46;;;;;;;0.90;0.70;;;;;;;;;;5057803;28;20451;-78
2020/12/22 03:30:15;;;;;;;5.33;0.90;;;;;;;;;;5067237;28;20486;-77
2020/12/22 03:32:43;;;;;;;1.93;0.90;;;;;;;;;;5071031;28;20919;-77
2020/12/22 03:35:10;;;;;;;1.40;0.80;;;;;;;;;;5072292;28;20466;-77
2020/12/22 03:37:38;;;;;;;1.77;0.90;;;;;;;;;;5070779;28;20448;-78
2020/12/22 03:40:06;;;;;;;0.90;0.70;;;;;;;;;;5071772;28;20444;-77
2020/12/22 03:42:33;;;;;;;1.00;0.73;;;;;;;;;;5072405;28;20535;-77
2020/12/22 03:45:00;;;;;;;1.40;0.90;;;;;;;;;;5072439;28;20841;-78
2020/12/22 03:47:28;;;;;;;2.20;0.87;;;;;;;;;;5073478;28;20525;-77
2020/12/22 03:49:55;;;;;;;1.97;0.70;;;;;;;;;;5071511;28;20480;-77
2020/12/22 03:52:22;;;;;;;1.10;0.70;;;;;;;;;;5067370;28;20440;-77
2020/12/22 03:54:48;;;;;;;1.40;0.90;;;;;;;;;;5069680;28;21045;-78
2020/12/22 03:57:16;;;;;;;0.90;0.73;;;;;;;;;;5071975;28;20936;-78
2020/12/22 03:59:43;;;;;;;0.80;0.70;;;;;;;;;;5071253;28;20941;-77
2020/12/22 04:02:10;;;;;;;0.80;0.60;;;;;;;;;;5071389;28;20451;-77
2020/12/22 04:04:38;;;;;;;2.00;0.80;;;;;;;;;;5073607;28;21025;-77
2020/12/22 04:07:05;;;;;;;1.50;0.80;;;;;;;;;;5072179;28;20497;-77
2020/12/22 04:09:31;;;;;;;2.00;0.70;;;;;;;;;;5073228;28;20531;-78
2020/12/22 04:11:58;;;;;;;0.80;0.70;;;;;;;;;;5072857;28;20539;-77
2020/12/22 04:14:25;;;;;;;2.10;0.93;;;;;;;;;;5067473;28;20466;-77
2020/12/22 04:16:52;;;;;;;1.73;0.80;;;;;;;;;;5069384;28;20440;-76
2020/12/22 04:19:19;;;;;;;0.90;0.80;;;;;;;;;;5071697;28;20799;-77
2020/12/22 04:21:47;;;;;;;1.20;0.77;;;;;;;;;;5070356;28;20466;-77
2020/12/22 04:24:14;;;;;;;0.90;0.70;;;;;;;;;;5070959;28;20464;-77
2020/12/22 04:26:41;;;;;;;0.80;0.70;;;;;;;;;;5071730;28;20972;-78
2020/12/22 04:29:08;;;;;;;0.90;0.70;;;;;;;;;;5073334;28;20549;-77
2020/12/22 04:31:35;;;;;;;0.83;0.73;;;;;;;;;;5073142;28;20591;-76
2020/12/22 04:34:02;;;;;;;0.87;0.80;;;;;;;;;;5072958;28;20452;-77
2020/12/22 04:36:28;;;;;;;1.13;0.80;;;;;;;;;;5067792;28;20546;-77
2020/12/22 04:38:56;;;;;;;1.00;0.90;;;;;;;;;;5068108;28;20493;-77
2020/12/22 04:41:24;;;;;;;1.40;0.70;;;;;;;;;;5071283;28;20792;-76
2020/12/22 04:43:51;;;;;;;2.50;0.80;;;;;;;;;;5070619;28;20547;-76
2020/12/22 04:46:19;;;;;;;0.80;0.70;;;;;;;;;;5070529;28;20521;-77
2020/12/22 04:48:50;;;;;;;1.10;0.90;;;;;;;;;;5071727;28;20452;-77
2020/12/22 04:51:17;;;;;;;0.90;0.73;;;;;;;;;;5071150;28;20480;-77
2020/12/22 04:53:45;;;;;;;2.70;0.80;;;;;;;;;;5054748;28;20529;-77
2020/12/22 04:56:13;;;;;;;1.40;0.80;;;;;;;;;;5052678;28;20594;-77
2020/12/22 04:58:40;;;;;;;0.97;0.70;;;;;;;;;;5064779;28;20436;-77
2020/12/22 05:01:07;;;;;;;0.97;0.80;;;;;;;;;;5067586;28;20918;-77
2020/12/22 05:03:33;;;;;;;1.03;0.80;;;;;;;;;;5069258;28;20459;-76
2020/12/22 05:06:00;;;;;;;0.90;0.80;;;;;;;;;;5070236;28;20442;-77
2020/12/22 05:08:27;;;;;;;1.47;0.90;;;;;;;;;;5070459;28;20811;-77
2020/12/22 05:10:54;;;;;;;1.20;0.90;;;;;;;;;;5070827;28;20981;-76
2020/12/22 05:13:22;;;;;;;1.17;0.80;;;;;;;;;;5070957;28;20588;-76
2020/12/22 05:15:50;;;;;;;1.37;1.00;;;;;;;;;;5072277;28;20494;-77
2020/12/22 05:18:20;;;;;;;1.00;0.80;;;;;;;;;;5071954;28;20447;-77
2020/12/22 05:20:48;;;;;;;1.00;0.70;;;;;;;;;;5067698;28;20440;-76
2020/12/22 05:23:15;;;;;;;1.87;0.70;;;;;;;;;;5066582;28;20852;-76
2020/12/22 05:25:43;;;;;;;0.90;0.70;;;;;;;;;;5068543;28;20667;-77
2020/12/22 05:28:09;;;;;;;1.50;0.80;;;;;;;;;;5069795;28;20442;-76
2020/12/22 05:30:38;;;;;;;0.90;0.70;;;;;;;;;;5070147;28;20852;-77
2020/12/22 05:33:05;;;;;;;1.67;0.70;;;;;;;;;;5070399;28;20524;-77
2020/12/22 05:35:36;;;;;;;1.83;0.70;;;;;;;;;;5071594;28;20523;-77
2020/12/22 05:38:04;;;;;;;0.90;0.80;;;;;;;;;;5070841;28;20941;-77
2020/12/22 05:40:31;;;;;;;0.90;0.80;;;;;;;;;;5071488;28;21512;-76
2020/12/22 05:42:58;;;;;;;0.93;0.70;;;;;;;;;;5067657;28;20513;-76
2020/12/22 05:45:25;;;;;;;1.13;0.80;;;;;;;;;;5066585;28;20500;-77
2020/12/22 05:47:54;;;;;;;1.83;0.73;;;;;;;;;;5067881;28;20980;-77
2020/12/22 05:50:23;;;;;;;0.93;0.83;;;;;;;;;;5069570;28;20484;-77
2020/12/22 05:52:52;;;;;;;1.10;0.70;;;;;;;;;;5067677;28;20448;-77
2020/12/22 05:55:25;;;;;;;0.80;0.60;;;;;;;;;;5069694;28;20484;-77
2020/12/22 05:58:06;;;;;;;1.10;0.60;;;;;;;;;;5065606;28;20440;-76
2020/12/22 06:00:33;;;;;;;1.00;0.80;;;;;;;;;;5066512;28;20456;-77
2020/12/22 06:03:04;;;;;;;2.90;0.80;;;;;;;;;;5069642;28;20471;-77
2020/12/22 06:05:32;;;;;;;0.80;0.70;;;;;;;;;;5069095;28;20446;-76
2020/12/22 06:07:59;;;;;;;0.80;0.63;;;;;;;;;;5068401;28;20444;-77
2020/12/22 06:10:26;;;;;;;1.17;0.70;;;;;;;;;;5070186;28;20488;-77
2020/12/22 06:12:58;;;;;;;2.40;0.73;;;;;;;;;;5070921;28;20456;-77
2020/12/22 06:15:25;;;;;;;1.03;0.70;;;;;;;;;;5071556;28;20589;-77
2020/12/22 06:17:52;;;;;;;0.80;0.60;;;;;;;;;;5071405;28;20523;-77
2020/12/22 06:20:21;;;;;;;0.90;0.70;;;;;;;;;;5066871;28;20432;-76
2020/12/22 06:22:48;;;;;;;1.00;0.80;;;;;;;;;;5065557;28;20520;-76
2020/12/22 06:25:18;;;;;;;1.40;1.00;;;;;;;;;;5069711;28;20417;-77
2020/12/22 06:27:45;;;;;;;0.80;0.70;;;;;;;;;;5068984;28;20505;-76
2020/12/22 06:30:13;;;;;;;0.90;0.70;;;;;;;;;;5069258;28;20486;-77
2020/12/22 06:32:40;;;;;;;0.93;0.80;;;;;;;;;;5069983;28;20535;-76
2020/12/22 06:35:27;;;;;;;0.80;0.60;;;;;;;;;;5071068;28;20443;-76
2020/12/22 06:37:54;;;;;;;1.40;0.90;;;;;;;;;;5070847;28;20443;-76
2020/12/22 06:40:21;;;;;;;0.90;0.70;;;;;;;;;;5071279;28;20447;-76
2020/12/22 06:42:48;;;;;;;1.30;0.87;;;;;;;;;;5066183;28;20439;-77
2020/12/22 06:45:22;;;;;;;0.80;0.70;;;;;;;;;;5065989;28;20783;-76
2020/12/22 06:47:49;;;;;;;1.10;0.90;;;;;;;;;;5069022;28;20548;-76
2020/12/22 06:50:31;;;;;;;1.77;0.90;;;;;;;;;;5068761;28;20574;-76
2020/12/22 06:52:58;;;;;;;0.80;0.70;;;;;;;;;;5070808;28;20463;-76
2020/12/22 06:55:45;;;;;;;3.83;1.57;;;;;;;;;;5073896;28;20470;-76
2020/12/22 06:58:12;;;;;;;1.20;0.70;;;;;;;;;;5073906;28;20447;-76
2020/12/22 07:00:39;;;;;;;2.07;0.80;;;;;;;;;;5074540;28;20450;-76
2020/12/22 07:03:10;;;;;;;0.90;0.80;;;;;;;;;;5074863;28;20482;-76
2020/12/22 07:05:38;;;;;;;1.13;0.80;;;;;;;;;;5069208;28;20788;-77
2020/12/22 07:08:05;;;;;;;2.00;0.90;;;;;;;;;;5070264;28;20436;-78
2020/12/22 07:10:36;;;;;;;2.07;1.00;;;;;;;;;;5072444;28;20633;-77
2020/12/22 07:13:04;;;;;;;2.07;0.90;;;;;;;;;;5072144;28;20462;-77
2020/12/22 07:15:32;;;;;;;1.90;1.00;;;;;;;;;;5069228;28;20519;-79
2020/12/22 07:18:07;;;;;;;1.00;0.80;;;;;;;;;;5073957;28;20444;-77
2020/12/22 07:20:35;;;;;;;0.90;0.80;;;;;;;;;;5073100;28;20444;-76
2020/12/22 07:23:03;;;;;;;2.83;1.10;;;;;;;;;;5074098;28;20463;-78
2020/12/22 07:25:31;;;;;;;2.17;1.43;;;;;;;;;;5073931;28;20436;-78
2020/12/22 07:27:58;;;;;;;1.10;0.90;;;;;;;;;;5068554;28;20470;-78
2020/12/22 07:30:25;;;;;;;2.63;1.10;;;;;;;;;;5069998;28;20487;-76
2020/12/22 07:32:53;;;;;;;2.00;1.07;;;;;;;;;;5072228;28;20477;-76
2020/12/22 07:35:20;;;;;;;1.47;1.10;;;;;;;;;;5070734;28;20967;-77
2020/12/22 07:37:47;;;;;;;3.00;1.63;;;;;;;;;;5071857;28;20791;-76
2020/12/22 07:40:14;;;;;;;1.73;1.00;;;;;;;;;;5073026;28;20979;-77
2020/12/22 07:42:43;;;;;;;8.83;1.57;;;;;;;;;;5074141;28;20497;-78
2020/12/22 07:45:09;;;;;;;2.60;1.10;;;;;;;;;;5073974;28;20847;-76
2020/12/22 07:47:36;;;;;;;1.40;0.90;;;;;;;;;;5055353;28;20530;-77
2020/12/22 07:50:13;;;;;;;3.10;1.30;;;;;;;;;;5067267;28;20494;-76
2020/12/22 07:52:39;;;;;;;2.67;1.50;;;;;;;;;;5068036;28;20448;-76
2020/12/22 07:55:08;;;;;;;2.70;1.83;;;;;;;;;;5072190;28;20448;-77
2020/12/22 07:57:36;;;;;;;3.37;1.97;;;;;;;;;;5071702;28;21113;-77
2020/12/22 08:00:05;;;;;;;3.33;2.23;;;;;;;;;;5072104;28;20854;-77
2020/12/22 08:02:33;;;;;;;4.10;2.30;;;;;;;;;;5071902;28;20489;-76
2020/12/22 08:05:08;;;;;;;2.70;2.20;;;;;;;;;;5072477;28;20444;-85
2020/12/22 08:07:35;;;;;;;2.40;1.63;;;;;;;;;;5066500;28;20802;-80
2020/12/22 08:10:09;;;;;;;5.87;5.20;;;;;;;;;;5068305;28;20511;-77
2020/12/22 08:12:36;;;;;;;4.70;2.63;;;;;;;;;;5071447;28;20440;-77
2020/12/22 08:15:02;;;;;;;3.83;2.83;;;;;;;;;;5071260;28;20444;-79
2020/12/22 08:17:30;;;;;;;3.67;2.80;;;;;;;;;;5069653;28;20439;-77
2020/12/22 08:19:58;;;;;;;3.70;2.40;;;;;;;;;;5072067;28;20513;-79
2020/12/22 08:22:25;;;;;;;6.10;1.77;;;;;;;;;;5072593;28;21005;-75
2020/12/22 08:24:52;;;;;;;4.00;2.33;;;;;;;;;;5073039;28;20470;-78
2020/12/22 08:27:18;;;;;;;2.40;1.70;;;;;;;;;;5072934;28;20527;-77
2020/12/22 08:29:46;;;;;;;4.00;3.60;;;;;;;;;;5068411;28;20432;-76
2020/12/22 08:32:16;;;;;;;5.07;2.10;;;;;;;;;;5068004;28;21143;-76
2020/12/22 08:34:46;;;;;;;2.50;2.17;;;;;;;;;;5071201;28;20539;-75
2020/12/22 08:37:12;;;;;;;2.73;2.20;;;;;;;;;;5049915;28;20441;-76
2020/12/22 08:39:40;;;;;;;3.93;1.20;;;;;;;;;;5050523;28;20510;-77
2020/12/22 08:42:07;;;;;;;2.70;1.50;;;;;;;;;;5061277;28;20451;-76
2020/12/22 08:44:34;;;;;;;2.20;1.73;;;;;;;;;;5055391;28;20460;-76
2020/12/22 08:47:10;;;;;;;3.20;1.87;;;;;;;;;;5063304;28;20777;-76
2020/12/22 08:49:37;;;;;;;2.60;1.93;;;;;;;;;;5070432;28;20496;-76
2020/12/22 08:52:10;;;;;;;2.87;2.03;;;;;;;;;;5052015;28;20480;-75
2020/12/22 08:54:37;;;;;;;2.80;1.80;;;;;;;;;;5049012;28;20472;-76
2020/12/22 08:57:12;;;;;;;3.60;2.40;;;;;;;;;;5058799;28;20459;-75
2020/12/22 08:59:38;;;;;;;5.30;2.67;;;;;;;;;;5065028;28;20454;-77
2020/12/22 09:02:05;;;;;;;3.37;1.73;;;;;;;;;;5052019;28;20449;-76
2020/12/22 09:04:33;;;;;;;3.33;2.40;;;;;;;;;;5060493;28;20464;-76
2020/12/22 09:07:00;;;;;;;3.20;1.63;;;;;;;;;;5056413;28;20915;-76
2020/12/22 09:09:30;;;;;;;3.87;1.70;;;;;;;;;;5054730;28;20815;-77
2020/12/22 09:12:05;;;;;;;4.60;3.53;;;;;;;;;;5065170;28;20519;-75
2020/12/22 09:14:40;;;;;;;4.83;2.03;;;;;;;;;;5054529;28;20486;-76
2020/12/22 09:17:07;;;;;;;2.80;1.83;;;;;;;;;;5052785;28;20786;-75
2020/12/22 09:19:41;;;;;;;3.67;2.40;;;;;;;;;;5049765;28;20993;-75
2020/12/22 09:22:08;;;;;;;2.20;1.60;;;;;;;;;;5050669;28;20445;-76
2020/12/22 09:24:36;;;;;;;5.30;2.47;;;;;;;;;;5051274;28;20978;-76
2020/12/22 09:27:04;;;;;;;7.93;3.00;;;;;;;;;;5051908;28;20570;-75
2020/12/22 09:29:31;;;;;;;4.00;2.00;;;;;;;;;;5051353;28;20540;-76
2020/12/22 09:31:58;;;;;;;4.20;2.17;;;;;;;;;;5054684;28;20476;-77
2020/12/22 09:34:26;;;;;;;3.13;2.00;;;;;;;;;;5063945;28;20964;-76
2020/12/22 09:36:54;;;;;;;6.53;2.07;;;;;;;;;;5056619;28;20472;-82
2020/12/22 09:39:21;;;;;;;3.13;1.30;;;;;;;;;;5058141;28;20449;-77
2020/12/22 09:41:49;;;;;;;5.50;1.40;;;;;;;;;;5061849;28;20440;-77
2020/12/22 09:44:15;;;;;;;3.77;1.77;;;;;;;;;;5066780;28;20610;-77
2020/12/22 09:46:42;;;;;;;2.27;1.93;;;;;;;;;;5065084;28;20493;-77
2020/12/22 09:49:09;;;;;;;4.23;1.80;;;;;;;;;;5066198;28;20995;-77
2020/12/22 09:51:36;;;;;;;5.63;2.20;;;;;;;;;;5069705;28;20588;-77
2020/12/22 09:54:03;;;;;;;2.40;1.70;;;;;;;;;;5069525;28;20554;-76
2020/12/22 09:56:31;;;;;;;4.80;2.60;;;;;;;;;;5069931;28;20432;-77
2020/12/22 09:58:59;;;;;;;3.67;1.60;;;;;;;;;;5051593;28;20441;-77
2020/12/22 10:01:26;;;;;;;3.07;2.30;;;;;;;;;;5050039;28;20851;-76
2020/12/22 10:03:53;;;;;;;4.43;2.00;;;;;;;;;;5051216;28;20456;-76
2020/12/22 10:06:21;;;;;;;4.10;2.50;;;;;;;;;;5051465;28;20455;-76
2020/12/22 10:08:48;;;;;;;3.13;2.10;;;;;;;;;;5063276;28;20779;-77
2020/12/22 10:11:15;;;;;;;2.47;1.73;;;;;;;;;;5066673;28;20571;-76
2020/12/22 10:13:42;;;;;;;3.83;2.23;;;;;;;;;;5068046;28;20560;-76
2020/12/22 10:16:10;;;;;;;3.40;1.70;;;;;;;;;;5069159;28;20837;-76
2020/12/22 10:18:37;;;;;;;4.90;2.57;;;;;;;;;;5069284;28;20444;-78
2020/12/22 10:21:05;;;;;;;3.80;2.40;;;;;;;;;;5069003;28;20448;-76
2020/12/22 10:23:32;;;;;;;4.10;2.13;;;;;;;;;;5069943;28;20468;-77
2020/12/22 10:25:59;;;;;;;3.80;2.30;;;;;;;;;;5073873;28;20463;-76
2020/12/22 10:28:26;;;;;;;3.33;2.30;;;;;;;;;;5074115;28;20497;-76
2020/12/22 10:30:53;;;;;;;5.30;1.97;;;;;;;;;;5070612;28;20572;-77
2020/12/22 10:33:21;;;;;;;4.43;2.17;;;;;;;;;;5070096;28;20448;-76
2020/12/22 10:35:48;;;;;;;2.33;1.63;;;;;;;;;;5072718;28;20471;-76
2020/12/22 10:38:14;;;;;;;4.30;2.70;;;;;;;;;;5072866;28;20535;-76
2020/12/22 10:40:41;;;;;;;3.10;1.50;;;;;;;;;;5073538;28;20843;-77
2020/12/22 10:43:08;;;;;;;3.13;2.10;;;;;;;;;;5073792;28;20479;-76
2020/12/22 10:45:35;;;;;;;2.23;1.57;;;;;;;;;;5074791;28;20450;-77
2020/12/22 10:48:02;;;;;;;3.63;1.97;;;;;;;;;;5074630;28;20520;-77
2020/12/22 10:50:30;;;;;;;5.43;1.43;;;;;;;;;;5075096;28;20484;-77
2020/12/22 10:52:56;;;;;;;2.13;1.47;;;;;;;;;;5071196;28;20470;-76
2020/12/22 10:55:24;;;;;;;2.77;1.97;;;;;;;;;;5069803;28;21886;-77
2020/12/22 10:57:50;;;;;;;3.20;1.80;;;;;;;;;;5072690;28;20785;-77
2020/12/22 11:00:18;;;;;;;4.17;2.40;;;;;;;;;;5072471;28;20436;-76
2020/12/22 11:02:45;;;;;;;3.60;1.83;;;;;;;;;;5070330;28;20444;-76
2020/12/22 11:05:12;;;;;;;4.40;2.10;;;;;;;;;;5054256;28;20574;-76
2020/12/22 11:07:44;;;;;;;3.33;2.23;;;;;;;;;;5067563;28;20436;-76
2020/12/22 11:10:11;;;;;;;4.63;2.50;;;;;;;;;;5070228;28;20456;-76
2020/12/22 11:12:38;;;;;;;4.57;2.40;;;;;;;;;;5067956;28;20890;-76
2020/12/22 11:15:05;;;;;;;5.40;2.30;;;;;;;;;;5052496;28;20801;-76
2020/12/22 11:17:31;;;;;;;3.33;2.17;;;;;;;;;;5052513;28;20448;-76
2020/12/22 11:19:58;;;;;;;4.53;1.63;;;;;;;;;;5062880;28;20561;-76
2020/12/22 11:22:25;;;;;;;3.97;1.30;;;;;;;;;;5058619;28;20444;-77
2020/12/22 11:24:52;;;;;;;3.83;2.40;;;;;;;;;;5064407;28;20518;-76
2020/12/22 11:27:19;;;;;;;2.90;2.43;;;;;;;;;;5067557;28;20956;-77
2020/12/22 11:29:46;;;;;;;4.97;2.20;;;;;;;;;;5067060;28;20501;-77
2020/12/22 11:32:13;;;;;;;2.83;2.00;;;;;;;;;;5068482;28;20494;-76
2020/12/22 11:34:40;;;;;;;5.90;2.30;;;;;;;;;;5058616;28;20481;-76
2020/12/22 11:37:07;;;;;;;2.53;1.73;;;;;;;;;;5058474;28;20440;-77
2020/12/22 11:39:33;;;;;;;3.67;2.03;;;;;;;;;;5069407;28;20921;-76
2020/12/22 11:42:02;;;;;;;2.93;1.83;;;;;;;;;;5056061;28;20547;-76
2020/12/22 11:44:29;;;;;;;2.97;1.47;;;;;;;;;;5057040;28;20464;-76
2020/12/22 11:46:56;;;;;;;6.70;2.20;;;;;;;;;;5064633;28;20447;-78
2020/12/22 11:49:23;;;;;;;2.10;1.90;;;;;;;;;;5055053;28;20487;-80
2020/12/22 11:51:56;;;;;;;4.07;2.00;;;;;;;;;;5059162;28;20490;-76
2020/12/22 11:54:23;;;;;;;4.00;2.27;;;;;;;;;;5055664;28;20473;-78
2020/12/22 11:56:50;;;;;;;3.13;2.00;;;;;;;;;;5048453;28;20449;-75
2020/12/22 11:59:18;;;;;;;6.83;3.33;;;;;;;;;;5061586;28;20433;-78
2020/12/22 12:01:45;;;;;;;4.67;2.70;;;;;;;;;;5048512;28;20842;-77
2020/12/22 12:04:11;;;;;;;5.50;3.73;;;;;;;;;;5060743;28;20509;-77
2020/12/22 12:06:38;;;;;;;3.27;2.80;;;;;;;;;;5061602;28;20442;-76
2020/12/22 12:09:06;;;;;;;3.57;2.77;;;;;;;;;;5063850;28;20440;-79
2020/12/22 12:11:32;;;;;;;3.40;2.10;;;;;;;;;;5069413;28;20472;-77
2020/12/22 12:13:59;;;;;;;4.00;2.30;;;;;;;;;;5071555;28;20983;-77
2020/12/22 12:16:27;;;;;;;2.60;2.17;;;;;;;;;;5070574;28;21001;-76
2020/12/22 12:18:54;;;;;;;2.17;1.80;;;;;;;;;;5070172;28;20447;-77
2020/12/22 12:21:21;;;;;;;2.67;2.20;;;;;;;;;;5053070;28;20512;-76
2020/12/22 12:23:47;;;;;;;3.17;2.30;;;;;;;;;;5062409;28;20463;-76
2020/12/22 12:26:15;;;;;;;3.93;2.03;;;;;;;;;;5055316;28;20521;-77
2020/12/22 12:28:42;;;;;;;2.80;2.10;;;;;;;;;;5055911;28;20652;-76
2020/12/22 12:31:13;;;;;;;3.30;2.17;;;;;;;;;;5066539;28;20468;-76
2020/12/22 12:33:40;;;;;;;3.20;2.03;;;;;;;;;;5068410;28;20449;-76
2020/12/22 12:36:07;;;;;;;3.60;2.03;;;;;;;;;;5063397;28;20441;-75
2020/12/22 12:38:34;;;;;;;5.57;2.00;;;;;;;;;;5051259;28;20536;-77
2020/12/22 12:41:01;;;;;;;3.60;2.00;;;;;;;;;;5051169;28;20535;-77
2020/12/22 12:43:28;;;;;;;1.50;1.40;;;;;;;;;;5050858;28;20504;-76
2020/12/22 12:45:54;;;;;;;6.57;2.00;;;;;;;;;;5064202;28;20444;-77
2020/12/22 12:48:21;;;;;;;3.23;1.90;;;;;;;;;;5066990;28;20454;-77
2020/12/22 12:50:49;;;;;;;1.80;1.63;;;;;;;;;;5064205;28;20476;-77
2020/12/22 12:53:16;;;;;;;3.53;1.90;;;;;;;;;;5058575;28;20798;-77
2020/12/22 12:55:43;;;;;;;2.17;1.47;;;;;;;;;;5050595;28;20993;-77
2020/12/22 12:58:10;;;;;;;2.37;2.00;;;;;;;;;;5070136;28;20494;-77
2020/12/22 13:00:37;;;;;;;2.63;1.67;;;;;;;;;;5072560;28;20448;-76
2020/12/22 13:03:04;;;;;;;2.30;2.00;;;;;;;;;;5053133;28;20457;-77
2020/12/22 13:05:31;;;;;;;2.13;1.87;;;;;;;;;;5055731;28;20540;-77
2020/12/22 13:07:58;;;;;;;3.77;1.53;;;;;;;;;;5069194;28;22274;-77
2020/12/22 13:10:25;;;;;;;2.53;2.03;;;;;;;;;;5066660;28;20521;-76
2020/12/22 13:12:52;;;;;;;4.57;2.20;;;;;;;;;;5069964;28;20547;-77
2020/12/22 13:15:19;;;;;;;2.17;1.80;;;;;;;;;;5070146;28;20534;-76
2020/12/22 13:17:46;;;;;;;3.83;2.20;;;;;;;;;;5069905;28;20539;-77
2020/12/22 13:20:12;;;;;;;5.83;1.90;;;;;;;;;;5070602;28;20985;-80
2020/12/22 13:22:39;;;;;;;2.03;1.77;;;;;;;;;;5071627;28;20894;-77
2020/12/22 13:25:07;;;;;;;2.90;1.90;;;;;;;;;;5071752;28;20523;-77
2020/12/22 13:27:34;;;;;;;2.90;1.63;;;;;;;;;;5071801;28;20536;-77
2020/12/22 13:30:01;;;;;;;1.90;1.70;;;;;;;;;;5069796;28;20519;-77
2020/12/22 13:32:28;;;;;;;2.53;1.83;;;;;;;;;;5065897;28;20523;-77
2020/12/22 13:34:54;;;;;;;2.13;1.90;;;;;;;;;;5068360;28;20448;-75
2020/12/22 13:37:21;;;;;;;7.63;2.10;;;;;;;;;;5069849;28;20462;-77
2020/12/22 13:39:48;;;;;;;2.63;1.73;;;;;;;;;;5069743;28;20479;-76
2020/12/22 13:42:16;;;;;;;3.80;2.20;;;;;;;;;;5069839;28;20448;-77
2020/12/22 13:44:43;;;;;;;3.70;2.07;;;;;;;;;;5072587;28;20546;-77
2020/12/22 13:47:09;;;;;;;3.07;2.20;;;;;;;;;;5091530;28;20522;-76
2020/12/22 13:49:36;;;;;;;3.30;2.17;;;;;;;;;;5091489;28;20566;-77
2020/12/22 13:52:03;;;;;;;5.20;2.57;;;;;;;;;;5087684;28;20915;-76
2020/12/22 13:54:30;;;;;;;3.77;2.43;;;;;;;;;;5065594;28;20452;-77
2020/12/22 13:56:57;;;;;;;3.77;2.30;;;;;;;;;;5067883;28;20432;-76
2020/12/22 13:59:24;;;;;;;3.03;2.27;;;;;;;;;;5068752;28;20467;-77
2020/12/22 14:01:51;;;;;;;4.77;2.97;;;;;;;;;;5069435;28;20525;-77
2020/12/22 14:04:18;;;;;;;2.43;2.23;;;;;;;;;;5069233;28;20551;-76
2020/12/22 14:06:45;;;;;;;6.63;2.53;;;;;;;;;;5054760;28;20441;-76
2020/12/22 14:09:12;;;;;;;2.90;2.50;;;;;;;;;;5049300;28;20480;-76
2020/12/22 14:11:41;;;;;;;2.40;2.20;;;;;;;;;;5049091;28;20593;-78
2020/12/22 14:14:08;;;;;;;4.47;2.27;;;;;;;;;;5052988;28;20978;-77
2020/12/22 14:16:35;;;;;;;2.67;1.90;;;;;;;;;;5063987;28;20428;-77
2020/12/22 14:19:02;;;;;;;5.37;3.60;;;;;;;;;;5066235;28;20535;-74
2020/12/22 14:21:29;;;;;;;6.17;3.90;;;;;;;;;;5069111;28;21064;-79
2020/12/22 14:23:56;;;;;;;4.30;2.90;;;;;;;;;;5062230;28;20453;-78
2020/12/22 14:26:25;;;;;;;6.37;3.53;;;;;;;;;;5049804;28;20536;-77
2020/12/22 14:28:52;;;;;;;4.00;2.87;;;;;;;;;;5056966;28;20890;-77
2020/12/22 14:31:19;;;;;;;10.07;5.57;;;;;;;;;;5063950;28;20483;-78
2020/12/22 14:33:47;;;;;;;5.30;3.50;;;;;;;;;;5056134;28;20545;-79
2020/12/22 14:36:18;;;;;;;6.20;4.20;;;;;;;;;;5059550;28;20448;-77
2020/12/22 14:38:45;;;;;;;5.13;2.77;;;;;;;;;;5068227;28;20448;-77
2020/12/22 14:41:12;;;;;;;7.50;4.63;;;;;;;;;;5063624;28;20510;-78
2020/12/22 14:43:39;;;;;;;5.83;3.87;;;;;;;;;;5063011;28;20458;-77
2020/12/22 14:46:06;;;;;;;8.43;3.70;;;;;;;;;;5060925;28;20499;-77